Time;durP1;ratioP1;P1;durP2;ratioP2;P2;SDS_P1;SDS_P2;PMS_P1;PMS_P2;Temp;Humidity;BMP_temperature;BMP_pressure;BME280_temperature;BME280_humidity;BME280_pressure;Samples;Min_cycle;Max_cycle;Signal;HPM_P1;HPM_P2
2022/10/03 00:00:13;;;;;;;1.75;0.70;;;19.40;99.90;;;;;;5005194;28;20194;-84
2022/10/03 00:03:14;;;;;;;1.23;0.77;;;19.40;99.90;;;;;;5013106;28;20609;-83
2022/10/03 00:05:56;;;;;;;0.80;0.80;;;19.20;99.90;;;;;;5013798;28;20211;-84
2022/10/03 00:08:46;;;;;;;1.83;0.70;;;19.40;99.90;;;;;;5026079;28;20715;-83
2022/10/03 00:11:29;;;;;;;1.30;0.70;;;19.40;99.90;;;;;;5031175;28;20231;-83
2022/10/03 00:14:04;;;;;;;1.20;0.80;;;19.50;99.90;;;;;;5028035;28;20197;-84
2022/10/03 00:16:44;;;;;;;0.52;0.40;;;19.70;99.90;;;;;;5034027;28;20200;-84
2022/10/03 00:19:26;;;;;;;1.45;0.80;;;19.60;99.90;;;;;;5033933;28;20181;-84
2022/10/03 00:22:09;;;;;;;3.00;0.77;;;19.60;99.90;;;;;;5041233;28;20193;-82
2022/10/03 00:24:53;;;;;;;1.30;0.70;;;19.50;99.90;;;;;;5051008;28;20212;-83
2022/10/03 00:27:37;;;;;;;2.90;0.88;;;19.40;99.90;;;;;;5046557;28;20217;-83
2022/10/03 00:30:26;;;;;;;2.83;0.60;;;19.50;99.90;;;;;;5032737;28;20228;-82
2022/10/03 00:33:11;;;;;;;1.05;0.82;;;19.50;99.90;;;;;;5035491;28;20205;-82
2022/10/03 00:35:56;;;;;;;1.42;0.70;;;19.60;99.90;;;;;;5042245;28;20596;-83
2022/10/03 00:38:50;;;;;;;1.67;0.77;;;19.70;99.90;;;;;;5033198;28;20300;-82
2022/10/03 00:41:55;;;;;;;1.80;0.60;;;19.70;99.90;;;;;;5011371;28;20217;-83
2022/10/03 00:45:04;;;;;;;0.60;0.55;;;19.90;99.90;;;;;;5030501;28;20213;-83
2022/10/03 00:48:16;;;;;;;1.58;0.77;;;19.90;99.90;;;;;;5006319;28;20571;-83
2022/10/03 00:51:05;;;;;;;1.23;0.70;;;19.80;99.90;;;;;;4986112;28;20237;-84
2022/10/03 00:53:53;;;;;;;2.17;1.00;;;19.80;99.90;;;;;;5018456;28;20213;-85
2022/10/03 00:56:38;;;;;;;1.38;0.90;;;19.70;99.90;;;;;;5042303;28;20222;-83
2022/10/03 00:59:29;;;;;;;1.63;1.00;;;19.70;99.90;;;;;;5032160;28;20240;-85
2022/10/03 01:02:17;;;;;;;2.42;0.80;;;19.90;99.90;;;;;;5045438;28;20291;-82
2022/10/03 01:04:57;;;;;;;1.05;0.70;;;20.30;99.90;;;;;;5031546;28;20266;-82
2022/10/03 01:07:47;;;;;;;0.98;0.70;;;20.30;99.90;;;;;;5038310;28;20992;-82
2022/10/03 01:10:25;;;;;;;3.00;0.90;;;20.30;99.90;;;;;;5049139;28;20641;-82
2022/10/03 01:13:10;;;;;;;2.88;0.80;;;20.40;99.90;;;;;;5046420;28;20714;-82
2022/10/03 01:15:53;;;;;;;2.22;0.70;;;20.30;99.90;;;;;;5042281;28;20272;-84
2022/10/03 01:18:37;;;;;;;1.90;0.95;;;20.20;99.90;;;;;;5036610;28;20196;-84
2022/10/03 01:21:21;;;;;;;1.50;0.80;;;20.10;99.90;;;;;;5052428;28;20200;-84
2022/10/03 01:24:22;;;;;;;1.58;0.63;;;20.10;99.90;;;;;;5043921;28;20192;-84
2022/10/03 01:26:57;;;;;;;3.10;0.73;;;20.00;99.90;;;;;;5032880;28;20185;-84
2022/10/03 01:32:35;;;;;;;0.93;0.60;;;20.10;99.90;;;;;;5033876;28;20351;-81
2022/10/03 01:35:16;;;;;;;1.95;0.70;;;20.20;99.90;;;;;;5037599;28;20253;-80
2022/10/03 01:37:56;;;;;;;1.95;0.60;;;20.40;99.90;;;;;;5046688;28;20288;-79
2022/10/03 01:40:30;;;;;;;2.15;0.40;;;20.60;99.90;;;;;;5050160;28;20274;-78
2022/10/03 01:43:10;;;;;;;4.00;0.50;;;20.60;99.90;;;;;;5048077;28;20211;-78
2022/10/03 01:45:51;;;;;;;2.83;0.68;;;20.70;99.90;;;;;;5034050;28;20197;-78
2022/10/03 01:48:30;;;;;;;1.23;0.40;;;20.90;99.90;;;;;;5048412;28;20200;-80
2022/10/03 01:51:07;;;;;;;1.88;0.60;;;20.80;99.90;;;;;;5049434;28;20207;-77
2022/10/03 01:53:50;;;;;;;0.95;0.40;;;20.90;99.90;;;;;;5048989;28;20196;-78
2022/10/03 01:56:30;;;;;;;2.15;0.60;;;21.10;99.90;;;;;;5041665;28;20691;-77
2022/10/03 01:59:06;;;;;;;1.50;0.50;;;21.30;99.90;;;;;;5048234;28;20204;-78
2022/10/03 02:01:48;;;;;;;0.82;0.35;;;21.50;99.90;;;;;;5031740;28;20185;-76
2022/10/03 02:04:30;;;;;;;2.45;0.50;;;21.70;99.90;;;;;;5053813;28;20285;-76
2022/10/03 02:07:09;;;;;;;2.05;0.43;;;21.90;99.90;;;;;;5051123;28;20236;-77
2022/10/03 02:09:51;;;;;;;2.63;0.50;;;21.70;99.90;;;;;;5034392;28;20221;-75
2022/10/03 02:12:33;;;;;;;1.35;0.50;;;21.70;99.90;;;;;;5039754;28;20192;-75
2022/10/03 02:15:17;;;;;;;0.80;0.30;;;22.00;99.90;;;;;;5050712;28;20204;-76
2022/10/03 02:17:58;;;;;;;2.05;0.40;;;21.80;99.90;;;;;;5032354;28;20201;-78
2022/10/03 02:20:36;;;;;;;2.03;0.68;;;21.70;99.90;;;;;;5046751;28;20201;-77
2022/10/03 02:23:25;;;;;;;0.43;0.40;;;21.80;99.90;;;;;;5047131;28;20201;-78
2022/10/03 02:26:07;;;;;;;1.02;0.45;;;22.00;99.90;;;;;;5034142;28;20197;-77
2022/10/03 02:28:56;;;;;;;2.00;0.65;;;22.00;99.90;;;;;;5044949;28;20254;-77
2022/10/03 02:31:49;;;;;;;2.08;0.60;;;22.00;99.90;;;;;;5054660;28;20200;-77
2022/10/03 02:34:36;;;;;;;1.20;0.40;;;22.00;99.90;;;;;;5058486;28;20192;-77
2022/10/03 02:37:45;;;;;;;1.33;0.47;;;22.00;99.90;;;;;;5054023;28;20725;-77
2022/10/03 02:41:11;;;;;;;4.28;0.50;;;22.10;99.90;;;;;;5032511;28;20254;-76
2022/10/03 02:44:03;;;;;;;1.23;0.50;;;22.20;99.90;;;;;;4934424;28;20571;-77
2022/10/03 02:47:05;;;;;;;1.52;0.40;;;22.40;99.90;;;;;;4993262;28;20249;-77
2022/10/03 02:50:05;;;;;;;1.67;0.47;;;22.40;99.90;;;;;;5046820;28;20220;-77
2022/10/03 02:53:18;;;;;;;1.92;0.50;;;22.60;99.90;;;;;;5054844;28;20203;-77
2022/10/03 02:56:30;;;;;;;0.88;0.50;;;22.40;99.90;;;;;;5055317;28;20710;-82
2022/10/03 02:59:30;;;;;;;0.70;0.40;;;22.50;99.90;;;;;;5054495;28;20196;-82
2022/10/03 03:02:34;;;;;;;2.63;0.50;;;22.50;99.90;;;;;;5045250;28;20200;-81
2022/10/03 03:05:34;;;;;;;2.60;0.50;;;22.30;99.90;;;;;;5021910;28;20284;-82
2022/10/03 03:08:38;;;;;;;0.95;0.50;;;22.10;99.90;;;;;;5031273;28;20201;-82
2022/10/03 03:11:40;;;;;;;1.15;0.50;;;22.40;99.90;;;;;;5041297;28;20192;-80
2022/10/03 03:14:46;;;;;;;1.75;0.50;;;22.50;99.90;;;;;;5059663;28;20216;-83
2022/10/03 03:17:29;;;;;;;1.20;0.63;;;22.70;99.90;;;;;;5034360;28;20220;-81
2022/10/03 03:20:45;;;;;;;0.80;0.40;;;22.70;99.90;;;;;;5049293;28;20409;-82
2022/10/03 03:23:40;;;;;;;2.10;0.60;;;22.80;99.90;;;;;;5030452;28;20280;-82
2022/10/03 03:26:49;;;;;;;2.10;0.52;;;22.80;99.90;;;;;;5035510;28;20197;-86
2022/10/03 03:29:32;;;;;;;0.52;0.40;;;22.70;99.90;;;;;;5044688;28;20231;-84
2022/10/03 03:32:12;;;;;;;1.98;0.50;;;22.80;99.90;;;;;;5053706;28;20196;-83
2022/10/03 03:34:53;;;;;;;3.33;0.63;;;22.90;99.90;;;;;;5036258;28;20548;-82
2022/10/03 03:37:35;;;;;;;1.90;0.50;;;22.90;99.90;;;;;;5050504;28;20197;-81
2022/10/03 03:40:28;;;;;;;2.88;0.70;;;22.90;99.90;;;;;;5048437;28;20695;-82
2022/10/03 03:43:21;;;;;;;0.88;0.57;;;22.90;99.90;;;;;;5042530;28;20251;-83
2022/10/03 03:46:19;;;;;;;2.42;0.75;;;22.80;99.90;;;;;;5056527;28;20184;-84
2022/10/03 03:49:25;;;;;;;4.75;0.75;;;22.90;99.90;;;;;;5053311;28;20289;-81
2022/10/03 03:52:10;;;;;;;1.85;0.55;;;22.80;99.90;;;;;;5052934;28;20217;-80
2022/10/03 03:55:15;;;;;;;3.40;0.50;;;22.90;99.90;;;;;;5053421;28;20303;-81
2022/10/03 03:58:15;;;;;;;0.95;0.60;;;22.80;99.90;;;;;;5047558;28;20648;-81
2022/10/03 04:01:00;;;;;;;2.50;0.65;;;22.80;99.90;;;;;;5053304;28;20207;-81
2022/10/03 04:03:45;;;;;;;1.75;0.52;;;22.90;99.90;;;;;;5053163;28;20201;-81
2022/10/03 04:06:34;;;;;;;2.83;0.57;;;22.80;99.90;;;;;;5038961;28;20652;-81
2022/10/03 04:09:26;;;;;;;2.05;0.50;;;22.70;99.90;;;;;;5033913;28;20252;-81
2022/10/03 04:12:10;;;;;;;1.83;0.70;;;22.50;99.90;;;;;;5035674;28;20225;-80
2022/10/03 04:15:08;;;;;;;2.45;0.50;;;22.50;99.90;;;;;;5050587;28;20287;-81
2022/10/03 04:21:02;;;;;;;1.98;0.50;;;22.60;99.90;;;;;;5040899;28;20196;-81
2022/10/03 04:23:46;;;;;;;2.13;0.50;;;22.60;99.90;;;;;;5047939;28;20217;-80
2022/10/03 04:26:36;;;;;;;1.77;0.40;;;22.60;99.90;;;;;;5065213;28;20201;-80
2022/10/03 04:29:50;;;;;;;1.33;0.40;;;22.50;99.90;;;;;;5058696;28;20223;-79
2022/10/03 04:32:51;;;;;;;2.33;0.40;;;22.30;99.90;;;;;;5062222;28;20212;-81
2022/10/03 04:35:50;;;;;;;2.17;0.45;;;22.30;99.80;;;;;;5039641;28;20206;-80
2022/10/03 04:38:57;;;;;;;0.47;0.30;;;22.10;99.90;;;;;;5039190;28;20211;-86
2022/10/03 04:45:18;;;;;;;0.82;0.30;;;22.10;99.90;;;;;;5048438;28;20295;-82
2022/10/03 04:47:55;;;;;;;1.15;0.40;;;22.30;99.90;;;;;;5054287;28;20250;-82
2022/10/03 04:50:36;;;;;;;0.40;0.40;;;22.30;98.80;;;;;;5053783;28;20223;-81
2022/10/03 04:53:29;;;;;;;1.48;0.47;;;22.30;97.80;;;;;;5055329;28;20203;-80
2022/10/03 04:56:14;;;;;;;2.05;0.43;;;22.30;96.30;;;;;;5051935;28;20249;-82
2022/10/03 04:58:54;;;;;;;0.32;0.30;;;22.30;96.70;;;;;;5043600;28;20223;-82
2022/10/03 05:01:32;;;;;;;3.75;0.50;;;22.40;97.30;;;;;;5055856;28;20212;-79
2022/10/03 05:04:15;;;;;;;1.42;0.85;;;22.40;96.10;;;;;;5053896;28;20201;-83
2022/10/03 05:06:57;;;;;;;0.52;0.30;;;22.30;97.30;;;;;;5055001;28;20238;-82
2022/10/03 05:09:36;;;;;;;0.43;0.40;;;22.10;97.10;;;;;;5054932;28;20192;-82
2022/10/03 05:12:17;;;;;;;1.20;0.43;;;21.90;97.80;;;;;;5049397;28;20265;-81
2022/10/03 05:15:15;;;;;;;1.73;0.60;;;22.00;97.30;;;;;;5052436;28;20690;-81
2022/10/03 05:17:57;;;;;;;1.38;0.40;;;22.00;96.70;;;;;;5054853;28;20207;-82
2022/10/03 05:20:51;;;;;;;5.90;0.43;;;22.10;96.70;;;;;;5052236;28;20196;-82
2022/10/03 05:23:35;;;;;;;1.95;0.30;;;22.30;95.70;;;;;;5056625;28;20268;-82
2022/10/03 05:26:17;;;;;;;3.28;0.40;;;22.50;96.20;;;;;;5060755;28;20234;-80
2022/10/03 05:28:58;;;;;;;2.08;0.45;;;22.60;96.80;;;;;;5037112;28;20227;-80
2022/10/03 05:31:39;;;;;;;1.00;0.30;;;22.60;96.10;;;;;;5040998;28;20340;-80
2022/10/03 05:34:27;;;;;;;0.47;0.25;;;22.70;95.80;;;;;;5038437;28;20255;-80
2022/10/03 05:37:17;;;;;;;0.55;0.25;;;22.90;93.10;;;;;;5050162;28;20654;-82
2022/10/03 05:40:04;;;;;;;2.15;0.50;;;23.00;94.10;;;;;;5034920;28;20201;-82
2022/10/03 05:43:05;;;;;;;0.75;0.30;;;23.20;94.20;;;;;;5034271;28;20189;-80
2022/10/03 05:45:49;;;;;;;0.68;0.30;;;23.40;91.80;;;;;;5035378;28;20193;-81
2022/10/03 05:48:44;;;;;;;2.53;0.38;;;23.40;91.00;;;;;;5040499;28;20228;-82
2022/10/03 05:51:38;;;;;;;2.85;0.40;;;23.50;89.70;;;;;;5054629;28;20228;-81
2022/10/03 05:54:38;;;;;;;0.47;0.30;;;23.50;90.30;;;;;;5050469;28;20216;-81
2022/10/03 06:04:34;;;;;;;3.30;0.40;;;22.30;92.20;;;;;;5051464;28;20232;-79
2022/10/03 06:07:27;;;;;;;1.60;0.38;;;21.60;95.00;;;;;;5052470;28;20279;-80
2022/10/03 06:10:28;;;;;;;1.02;0.40;;;21.20;98.40;;;;;;5051064;28;20212;-80
2022/10/03 06:13:12;;;;;;;1.27;0.47;;;21.00;99.90;;;;;;5051371;28;20197;-80
2022/10/03 06:15:55;;;;;;;2.28;0.40;;;20.80;99.90;;;;;;5054060;28;20197;-80
2022/10/03 06:18:48;;;;;;;2.08;0.43;;;20.60;99.90;;;;;;5032324;28;20201;-81
2022/10/03 06:21:49;;;;;;;1.40;0.50;;;20.40;99.90;;;;;;5042943;28;20613;-81
2022/10/03 06:24:59;;;;;;;2.00;0.50;;;20.30;99.90;;;;;;5005828;28;20215;-79
2022/10/03 06:28:23;;;;;;;0.85;0.50;;;20.50;99.90;;;;;;5032707;28;20201;-80
2022/10/03 06:31:15;;;;;;;2.63;0.68;;;21.10;99.90;;;;;;5055596;28;20220;-80
2022/10/03 06:34:28;;;;;;;2.15;0.75;;;22.00;99.90;;;;;;5050918;28;20203;-79
2022/10/03 06:37:28;;;;;;;2.78;0.50;;;22.90;98.40;;;;;;4979125;28;20214;-79
2022/10/03 06:40:48;;;;;;;2.03;0.50;;;23.60;96.80;;;;;;5046147;28;20208;-79
2022/10/03 06:43:58;;;;;;;0.85;0.40;;;24.30;91.50;;;;;;5049165;28;20228;-80
2022/10/03 06:47:00;;;;;;;2.08;0.60;;;24.00;91.90;;;;;;5032086;28;20201;-80
2022/10/03 06:50:21;;;;;;;0.88;0.40;;;23.70;91.40;;;;;;5012649;28;20207;-81
2022/10/03 06:53:35;;;;;;;0.68;0.30;;;23.40;91.90;;;;;;5031435;28;20209;-83
2022/10/03 06:56:30;;;;;;;3.78;0.60;;;22.80;92.90;;;;;;5036763;28;20243;-81
2022/10/03 06:59:46;;;;;;;2.67;0.60;;;22.30;94.60;;;;;;5039806;28;20192;-81
2022/10/03 07:02:46;;;;;;;3.38;0.50;;;21.80;95.90;;;;;;4997384;28;20225;-82
2022/10/03 07:05:58;;;;;;;0.75;0.43;;;21.30;98.90;;;;;;4996229;28;20198;-79
2022/10/03 07:09:00;;;;;;;3.78;0.65;;;21.00;99.90;;;;;;5047188;28;20192;-80
2022/10/03 07:12:05;;;;;;;1.20;0.68;;;20.80;99.90;;;;;;5052586;28;20269;-83
2022/10/03 07:15:06;;;;;;;2.67;0.60;;;20.60;99.90;;;;;;5049018;28;20204;-81
2022/10/03 07:18:05;;;;;;;1.55;0.43;;;20.60;99.90;;;;;;5047601;28;20194;-83
2022/10/03 07:21:06;;;;;;;1.23;0.60;;;20.40;99.90;;;;;;5041740;28;20579;-82
2022/10/03 07:24:01;;;;;;;1.10;0.50;;;20.30;99.90;;;;;;5058168;28;20191;-78
2022/10/03 07:27:07;;;;;;;1.00;0.40;;;20.30;99.90;;;;;;5067632;28;20272;-78
2022/10/03 07:30:05;;;;;;;1.23;0.32;;;20.20;99.90;;;;;;5046401;28;20203;-78
2022/10/03 07:33:15;;;;;;;1.92;0.60;;;20.10;99.90;;;;;;5036920;28;20201;-78
2022/10/03 07:39:14;;;;;;;2.97;0.60;;;19.90;99.90;;;;;;5043751;28;20204;-80
2022/10/03 07:42:17;;;;;;;0.50;0.40;;;19.70;99.90;;;;;;5053948;28;20207;-77
2022/10/03 07:45:15;;;;;;;0.63;0.50;;;19.50;99.90;;;;;;5049801;28;20655;-77
2022/10/03 07:48:27;;;;;;;0.45;0.40;;;19.40;99.90;;;;;;5041027;28;20193;-78
2022/10/03 07:51:23;;;;;;;0.88;0.40;;;19.30;99.90;;;;;;5053724;28;20228;-79
2022/10/03 07:54:32;;;;;;;3.28;0.70;;;19.20;99.90;;;;;;5054473;28;20240;-77
2022/10/03 07:57:38;;;;;;;1.75;0.80;;;19.20;99.90;;;;;;5016617;28;20204;-77
2022/10/03 08:00:22;;;;;;;1.20;0.90;;;19.10;99.90;;;;;;5029312;28;20560;-74
2022/10/03 08:03:45;;;;;;;1.55;0.60;;;19.00;99.90;;;;;;5023957;28;20283;-77
2022/10/03 08:06:25;;;;;;;0.77;0.40;;;19.00;99.90;;;;;;5042392;28;20198;-78
2022/10/03 08:09:10;;;;;;;1.15;0.80;;;18.90;99.90;;;;;;5033270;28;20300;-76
2022/10/03 08:12:07;;;;;;;1.52;0.57;;;18.90;99.90;;;;;;5032967;28;20225;-76
2022/10/03 08:14:49;;;;;;;2.20;0.90;;;18.80;99.90;;;;;;5025553;28;20193;-77
2022/10/03 08:17:46;;;;;;;0.60;0.60;;;18.70;99.90;;;;;;5033231;28;20199;-76
2022/10/03 08:20:46;;;;;;;2.17;0.70;;;18.60;99.90;;;;;;5026751;28;20201;-77
2022/10/03 08:23:45;;;;;;;2.85;0.93;;;18.60;99.90;;;;;;5028092;28;20208;-77
2022/10/03 08:26:21;;;;;;;2.00;0.90;;;18.60;99.90;;;;;;5033233;28;20258;-76
2022/10/03 08:29:18;;;;;;;1.10;0.47;;;18.50;99.90;;;;;;5025175;28;20229;-76
2022/10/03 08:32:20;;;;;;;1.75;1.23;;;18.40;99.90;;;;;;5033903;28;20229;-76
2022/10/03 08:35:20;;;;;;;3.78;1.90;;;18.40;99.90;;;;;;5038764;28;20279;-77
2022/10/03 08:38:18;;;;;;;2.05;1.25;;;18.40;99.90;;;;;;5029276;28;20198;-76
2022/10/03 08:41:29;;;;;;;4.95;2.28;;;18.40;99.90;;;;;;5027149;28;20211;-77
2022/10/03 08:44:33;;;;;;;2.67;1.33;;;18.30;99.90;;;;;;5006646;28;20708;-76
2022/10/03 08:47:32;;;;;;;1.75;0.73;;;18.20;99.90;;;;;;5032813;28;20205;-77
2022/10/03 08:50:25;;;;;;;1.83;0.70;;;18.20;99.90;;;;;;5032580;28;20717;-76
2022/10/03 08:53:23;;;;;;;0.88;0.70;;;18.20;99.90;;;;;;5040120;28;20544;-76
2022/10/03 08:56:06;;;;;;;1.63;1.20;;;18.10;99.90;;;;;;5025564;28;20707;-75
2022/10/03 08:59:06;;;;;;;2.55;1.00;;;18.10;99.90;;;;;;5042285;28;20807;-75
2022/10/03 09:02:29;;;;;;;2.65;1.00;;;18.20;99.90;;;;;;5047793;28;20272;-75
2022/10/03 09:05:28;;;;;;;1.90;1.00;;;18.20;99.90;;;;;;5044335;28;20201;-76
2022/10/03 09:08:34;;;;;;;2.15;0.90;;;18.10;99.90;;;;;;5051833;28;20200;-75
2022/10/03 09:11:34;;;;;;;0.82;0.80;;;18.10;99.90;;;;;;5047441;28;20232;-75
2022/10/03 09:14:41;;;;;;;1.95;0.80;;;18.10;99.90;;;;;;5014731;28;20292;-77
2022/10/03 09:17:32;;;;;;;1.60;0.80;;;18.10;99.90;;;;;;5026218;28;20200;-75
2022/10/03 09:20:32;;;;;;;1.00;0.70;;;18.10;99.90;;;;;;5044528;28;20223;-78
2022/10/03 09:23:28;;;;;;;1.88;0.65;;;18.10;99.90;;;;;;5050130;28;20219;-78
2022/10/03 09:26:22;;;;;;;1.63;0.70;;;18.10;99.90;;;;;;5031678;28;20259;-78
2022/10/03 09:29:33;;;;;;;1.23;0.65;;;18.10;99.90;;;;;;5042381;28;20568;-77
2022/10/03 09:32:36;;;;;;;0.90;0.50;;;18.00;99.90;;;;;;5013159;28;20235;-77
2022/10/03 09:35:45;;;;;;;0.85;0.70;;;18.00;99.90;;;;;;5047172;28;20480;-77
2022/10/03 09:38:42;;;;;;;1.73;0.70;;;18.00;99.90;;;;;;5043476;28;20727;-77
2022/10/03 09:41:35;;;;;;;2.78;0.70;;;18.00;99.90;;;;;;5026734;28;20215;-77
2022/10/03 09:44:35;;;;;;;1.75;0.80;;;17.90;99.90;;;;;;5044468;28;20225;-76
2022/10/03 09:47:40;;;;;;;1.25;0.70;;;17.90;99.90;;;;;;5051343;28;20251;-78
2022/10/03 09:50:40;;;;;;;3.42;0.90;;;17.90;99.90;;;;;;5051407;28;20326;-76
2022/10/03 09:54:00;;;;;;;2.60;1.00;;;17.90;99.90;;;;;;5050690;28;20208;-78
2022/10/03 09:57:08;;;;;;;1.65;0.80;;;17.90;99.90;;;;;;5049682;28;20229;-77
2022/10/03 10:00:06;;;;;;;1.30;0.77;;;17.90;99.90;;;;;;5046872;28;20196;-77
2022/10/03 10:03:02;;;;;;;2.38;0.95;;;17.90;99.90;;;;;;5032083;28;20209;-78
2022/10/03 10:06:13;;;;;;;3.40;1.02;;;17.80;99.90;;;;;;5031159;28;20199;-78
2022/10/03 10:09:18;;;;;;;1.15;0.68;;;17.80;99.90;;;;;;5041056;28;20250;-77
2022/10/03 10:12:19;;;;;;;2.00;0.70;;;17.80;99.90;;;;;;5031007;28;20302;-77
2022/10/03 10:15:21;;;;;;;1.25;0.75;;;17.70;99.90;;;;;;5045666;28;20193;-78
2022/10/03 10:18:25;;;;;;;3.58;0.73;;;17.70;99.90;;;;;;5048241;28;20564;-77
2022/10/03 10:21:33;;;;;;;2.90;0.80;;;17.70;99.90;;;;;;5031158;28;20216;-77
2022/10/03 10:24:35;;;;;;;2.38;0.70;;;17.70;99.90;;;;;;5031143;28;20208;-77
2022/10/03 10:27:29;;;;;;;2.33;0.88;;;17.60;99.90;;;;;;5043310;28;20208;-75
2022/10/03 10:30:13;;;;;;;2.30;0.88;;;17.50;99.90;;;;;;5048627;28;20200;-77
2022/10/03 10:33:16;;;;;;;1.55;0.60;;;17.50;99.90;;;;;;5050107;28;20260;-78
2022/10/03 10:36:39;;;;;;;2.13;0.68;;;17.50;99.90;;;;;;5050298;28;20222;-77
2022/10/03 10:39:43;;;;;;;2.30;0.93;;;17.40;99.90;;;;;;5041414;28;20224;-77
2022/10/03 10:42:57;;;;;;;2.55;0.85;;;17.40;99.90;;;;;;5052334;28;20203;-77
2022/10/03 10:46:03;;;;;;;0.98;0.68;;;17.40;99.90;;;;;;5049769;28;20303;-76
2022/10/03 10:49:14;;;;;;;1.45;0.60;;;17.40;99.90;;;;;;5051529;28;20279;-76
2022/10/03 10:52:12;;;;;;;1.23;0.60;;;17.30;99.90;;;;;;5049268;28;20235;-76
2022/10/03 10:55:26;;;;;;;1.23;0.70;;;17.40;99.90;;;;;;5061268;28;20240;-76
2022/10/03 10:58:39;;;;;;;1.40;0.80;;;17.40;99.90;;;;;;5060787;28;20196;-77
2022/10/03 11:01:45;;;;;;;1.73;0.60;;;17.30;99.90;;;;;;5058288;28;20342;-77
2022/10/03 11:04:59;;;;;;;1.67;0.70;;;17.30;99.90;;;;;;5046815;28;20675;-78
2022/10/03 11:08:16;;;;;;;2.25;0.60;;;17.30;99.90;;;;;;5054420;28;20196;-76
2022/10/03 11:11:08;;;;;;;0.93;0.52;;;17.30;99.90;;;;;;5018655;28;20235;-76
2022/10/03 11:14:16;;;;;;;0.90;0.60;;;17.20;99.90;;;;;;5037750;28;20716;-76
2022/10/03 11:17:23;;;;;;;1.23;0.63;;;17.20;99.90;;;;;;5019981;28;20678;-77
2022/10/03 11:20:35;;;;;;;1.08;0.60;;;17.20;99.90;;;;;;5032348;28;20660;-77
2022/10/03 11:23:45;;;;;;;1.10;0.60;;;17.20;99.90;;;;;;5053221;28;20212;-76
2022/10/03 11:26:47;;;;;;;1.48;0.93;;;17.20;99.90;;;;;;5051368;28;20204;-76
2022/10/03 11:30:05;;;;;;;2.38;0.80;;;17.20;99.90;;;;;;5041144;28;20250;-77
2022/10/03 11:33:08;;;;;;;1.02;0.63;;;17.10;99.90;;;;;;5028258;28;20713;-77
2022/10/03 11:36:12;;;;;;;2.83;0.55;;;17.10;99.90;;;;;;5050137;28;20201;-76
2022/10/03 11:38:50;;;;;;;2.55;0.65;;;17.10;99.90;;;;;;5033570;28;20303;-76
2022/10/03 11:41:30;;;;;;;0.88;0.52;;;17.10;99.90;;;;;;5049020;28;20295;-76
2022/10/03 11:44:17;;;;;;;1.77;0.70;;;17.10;99.90;;;;;;5045324;28;20224;-76
2022/10/03 11:47:13;;;;;;;2.33;0.50;;;17.10;99.90;;;;;;5034290;28;20663;-76
2022/10/03 11:50:07;;;;;;;4.07;0.70;;;17.10;99.90;;;;;;5048547;28;20193;-76
2022/10/03 11:52:44;;;;;;;1.85;0.60;;;17.20;99.90;;;;;;5052885;28;20228;-76
2022/10/03 11:55:31;;;;;;;1.92;0.70;;;17.20;99.90;;;;;;5040516;28;20225;-77
2022/10/03 11:58:17;;;;;;;2.40;0.85;;;17.20;99.90;;;;;;5032553;28;20572;-76
2022/10/03 12:01:01;;;;;;;1.20;0.60;;;17.10;99.90;;;;;;5034932;28;20231;-76
2022/10/03 12:03:37;;;;;;;1.95;0.90;;;17.10;99.90;;;;;;5033211;28;20282;-76
2022/10/03 12:09:16;;;;;;;1.75;0.73;;;17.00;99.90;;;;;;5043968;28;20316;-76
2022/10/03 12:11:56;;;;;;;2.15;0.70;;;17.00;99.90;;;;;;5052264;28;20270;-76
2022/10/03 12:14:30;;;;;;;1.98;0.70;;;17.00;99.90;;;;;;5048469;28;20199;-76
2022/10/03 12:17:22;;;;;;;1.95;0.63;;;17.00;99.90;;;;;;5035243;28;20193;-77
2022/10/03 12:20:02;;;;;;;3.13;0.80;;;17.00;99.90;;;;;;5043187;28;20201;-76
2022/10/03 12:22:48;;;;;;;3.58;0.90;;;17.00;99.90;;;;;;5038160;28;20192;-77
2022/10/03 12:25:24;;;;;;;3.58;0.90;;;16.90;99.90;;;;;;5051335;28;20200;-76
2022/10/03 12:28:14;;;;;;;2.08;0.60;;;16.90;99.90;;;;;;5052815;28;20674;-78
2022/10/03 12:30:50;;;;;;;2.25;0.70;;;16.90;99.90;;;;;;5053287;28;20200;-77
2022/10/03 12:33:38;;;;;;;1.30;0.60;;;16.80;99.90;;;;;;5052239;28;20224;-77
2022/10/03 12:36:14;;;;;;;3.22;0.77;;;16.90;99.90;;;;;;5049431;28;20205;-77
2022/10/03 12:39:12;;;;;;;1.52;0.80;;;16.90;99.90;;;;;;5041425;28;20275;-77
2022/10/03 12:41:58;;;;;;;2.88;0.90;;;16.90;99.90;;;;;;5052494;28;20567;-77
2022/10/03 12:44:40;;;;;;;1.13;0.60;;;16.90;99.90;;;;;;5032453;28;20193;-76
2022/10/03 12:47:30;;;;;;;1.65;0.63;;;16.90;99.90;;;;;;5033500;28;20211;-78
2022/10/03 12:50:08;;;;;;;2.28;0.63;;;16.80;99.90;;;;;;5033444;28;20201;-76
2022/10/03 12:52:46;;;;;;;2.47;0.60;;;16.90;99.90;;;;;;5049873;28;20228;-77
2022/10/03 12:55:29;;;;;;;1.85;0.50;;;16.80;99.90;;;;;;5060888;28;20232;-77
2022/10/03 12:58:10;;;;;;;0.82;0.50;;;16.80;99.90;;;;;;5053076;28;20211;-77
2022/10/03 13:00:50;;;;;;;3.65;0.70;;;16.70;99.90;;;;;;5038766;28;20235;-76
2022/10/03 13:03:34;;;;;;;2.92;0.75;;;16.70;99.90;;;;;;5016793;28;20224;-77
2022/10/03 13:06:36;;;;;;;1.27;0.40;;;16.70;99.90;;;;;;5036821;28;20254;-77
2022/10/03 13:09:27;;;;;;;2.85;0.70;;;16.70;99.90;;;;;;5014107;28;20226;-78
2022/10/03 13:12:09;;;;;;;1.88;0.52;;;16.70;99.90;;;;;;5015077;28;20226;-77
2022/10/03 13:15:23;;;;;;;2.50;0.73;;;16.70;99.90;;;;;;5016776;28;20225;-78
2022/10/03 13:17:59;;;;;;;1.27;0.50;;;16.60;99.90;;;;;;5002636;28;20255;-78
2022/10/03 13:20:35;;;;;;;1.52;0.57;;;16.60;99.90;;;;;;5032768;28;20219;-75
2022/10/03 13:23:15;;;;;;;1.50;0.60;;;16.50;99.90;;;;;;5028051;28;20203;-76
2022/10/03 13:25:51;;;;;;;0.90;0.40;;;16.50;99.90;;;;;;5020547;28;20204;-76
2022/10/03 13:28:32;;;;;;;1.20;0.60;;;16.50;99.90;;;;;;5030752;28;20212;-75
2022/10/03 13:31:08;;;;;;;1.25;0.50;;;16.50;99.90;;;;;;5052627;28;20598;-75
2022/10/03 13:33:44;;;;;;;2.72;0.60;;;16.50;99.90;;;;;;5027192;28;20232;-75
2022/10/03 13:36:20;;;;;;;2.83;0.57;;;16.50;99.90;;;;;;5032512;28;20667;-76
2022/10/03 13:39:13;;;;;;;1.42;0.57;;;16.50;99.90;;;;;;5026130;28;20572;-76
2022/10/03 13:42:01;;;;;;;2.78;0.73;;;16.40;99.90;;;;;;5014568;28;20711;-76
2022/10/03 13:44:40;;;;;;;3.55;0.70;;;16.30;99.90;;;;;;5011868;28;20288;-76
2022/10/03 13:47:31;;;;;;;1.60;0.60;;;16.30;99.90;;;;;;5012421;28;20204;-76
2022/10/03 13:50:05;;;;;;;1.70;0.80;;;16.30;99.90;;;;;;5013045;28;20213;-76
2022/10/03 13:52:40;;;;;;;1.60;0.60;;;16.30;99.90;;;;;;5025162;28;20228;-76
2022/10/03 13:55:25;;;;;;;2.33;0.47;;;16.20;99.90;;;;;;5019491;28;20232;-77
2022/10/03 13:58:07;;;;;;;1.60;0.75;;;16.20;99.90;;;;;;5039602;28;20204;-77
2022/10/03 14:00:52;;;;;;;0.50;0.40;;;16.20;99.90;;;;;;5039290;28;20205;-77
2022/10/03 14:03:32;;;;;;;0.77;0.60;;;16.20;99.90;;;;;;5052799;28;20254;-77
2022/10/03 14:06:14;;;;;;;1.48;0.60;;;16.20;99.90;;;;;;5035696;28;20644;-77
2022/10/03 14:09:16;;;;;;;0.98;0.60;;;16.10;99.90;;;;;;5050583;28;21042;-77
2022/10/03 14:11:51;;;;;;;1.88;0.57;;;16.10;99.90;;;;;;5050965;28;20226;-77
2022/10/03 14:14:43;;;;;;;1.77;0.60;;;16.10;99.90;;;;;;5044581;28;20196;-78
2022/10/03 14:17:19;;;;;;;3.17;0.60;;;16.10;99.90;;;;;;5035942;28;20208;-77
2022/10/03 14:20:04;;;;;;;2.00;0.68;;;16.10;99.90;;;;;;5051072;28;20206;-79
2022/10/03 14:22:45;;;;;;;1.10;0.50;;;16.10;99.90;;;;;;5050601;28;20741;-79
2022/10/03 14:25:25;;;;;;;0.90;0.52;;;16.10;99.90;;;;;;5050631;28;20308;-75
2022/10/03 14:27:59;;;;;;;1.60;0.70;;;16.10;99.90;;;;;;5051022;28;20215;-77
2022/10/03 14:30:35;;;;;;;1.35;0.65;;;16.10;99.90;;;;;;5050782;28;20196;-77
2022/10/03 14:33:24;;;;;;;1.20;0.80;;;16.10;99.90;;;;;;5045153;28;20220;-78
2022/10/03 14:36:06;;;;;;;2.00;0.75;;;15.90;99.90;;;;;;5043252;28;20204;-78
2022/10/03 14:39:04;;;;;;;6.80;0.82;;;15.90;99.90;;;;;;5051061;28;20207;-77
2022/10/03 14:41:51;;;;;;;2.60;0.80;;;15.90;99.90;;;;;;5051000;28;20602;-78
2022/10/03 14:44:25;;;;;;;2.33;0.90;;;15.90;99.90;;;;;;5051576;28;20204;-78
2022/10/03 14:47:00;;;;;;;1.10;0.85;;;15.90;99.90;;;;;;5038973;28;20204;-78
2022/10/03 14:49:35;;;;;;;1.40;0.95;;;15.80;99.90;;;;;;5030990;28;20208;-78
2022/10/03 14:52:09;;;;;;;2.30;1.00;;;15.80;99.90;;;;;;5033745;28;20201;-78
2022/10/03 14:54:42;;;;;;;2.20;0.95;;;15.70;99.90;;;;;;5048210;28;20199;-78
2022/10/03 14:57:32;;;;;;;1.60;1.00;;;15.60;99.90;;;;;;5061641;28;20196;-76
2022/10/03 15:00:05;;;;;;;1.13;0.88;;;15.60;99.90;;;;;;5048064;28;20228;-77
2022/10/03 15:02:38;;;;;;;1.48;0.85;;;15.60;99.90;;;;;;5044242;28;20205;-77
2022/10/03 15:05:22;;;;;;;2.00;0.90;;;15.60;99.90;;;;;;5023630;28;20652;-77
2022/10/03 15:07:54;;;;;;;2.17;0.70;;;15.60;99.90;;;;;;5030111;28;20249;-77
2022/10/03 15:10:28;;;;;;;2.25;1.00;;;15.50;99.90;;;;;;5023671;28;20194;-77
2022/10/03 15:13:08;;;;;;;2.03;0.73;;;15.50;99.90;;;;;;5010982;28;20719;-77
2022/10/03 15:15:41;;;;;;;1.73;0.60;;;15.40;99.90;;;;;;5017681;28;20259;-77
2022/10/03 15:18:19;;;;;;;1.77;0.85;;;15.40;99.90;;;;;;5030946;28;20198;-78